sensor_id;sensor_type;location;lat;lon;timestamp;pressure;altitude;pressure_sealevel;temperature;humidity
8253;BME280;61313;48.396;10.008;2023-04-24T00:01:53;95270.09;;;13.03;66.38
8253;BME280;61313;48.396;10.008;2023-04-24T00:04:20;95266.88;;;12.99;67.16
8253;BME280;61313;48.396;10.008;2023-04-24T00:06:45;95278.22;;;13.00;67.15
8253;BME280;61313;48.396;10.008;2023-04-24T00:09:14;95278.44;;;12.97;66.75
8253;BME280;61313;48.396;10.008;2023-04-24T00:11:40;95274.97;;;12.96;67.19
8253;BME280;61313;48.396;10.008;2023-04-24T00:14:06;95261.78;;;12.96;66.83
8253;BME280;61313;48.396;10.008;2023-04-24T00:16:31;95269.81;;;12.95;66.92
8253;BME280;61313;48.396;10.008;2023-04-24T00:18:57;95271.41;;;12.84;67.23
8253;BME280;61313;48.396;10.008;2023-04-24T00:21:23;95267.38;;;12.91;66.69
8253;BME280;61313;48.396;10.008;2023-04-24T00:23:50;95269.09;;;12.80;68.02
8253;BME280;61313;48.396;10.008;2023-04-24T00:26:16;95267.84;;;12.85;67.27
8253;BME280;61313;48.396;10.008;2023-04-24T00:28:41;95263.72;;;12.81;67.88
8253;BME280;61313;48.396;10.008;2023-04-24T00:31:07;95261.34;;;12.78;67.42
8253;BME280;61313;48.396;10.008;2023-04-24T00:33:32;95266.88;;;12.86;67.73
8253;BME280;61313;48.396;10.008;2023-04-24T00:35:58;95267.38;;;12.91;67.55
8253;BME280;61313;48.396;10.008;2023-04-24T00:38:23;95260.88;;;12.84;68.34
8253;BME280;61313;48.396;10.008;2023-04-24T00:40:48;95259.06;;;12.85;67.59
8253;BME280;61313;48.396;10.008;2023-04-24T00:43:16;95258.78;;;12.77;67.77
8253;BME280;61313;48.396;10.008;2023-04-24T00:45:41;95257.50;;;12.95;67.16
8253;BME280;61313;48.396;10.008;2023-04-24T00:48:07;95256.25;;;12.75;68.11
8253;BME280;61313;48.396;10.008;2023-04-24T00:50:32;95247.19;;;12.79;68.03
8253;BME280;61313;48.396;10.008;2023-04-24T00:52:58;95245.13;;;12.71;68.47
8253;BME280;61313;48.396;10.008;2023-04-24T00:55:24;95244.06;;;12.74;68.35
8253;BME280;61313;48.396;10.008;2023-04-24T00:57:51;95240.38;;;12.77;68.00
8253;BME280;61313;48.396;10.008;2023-04-24T01:00:17;95233.31;;;12.77;67.96
8253;BME280;61313;48.396;10.008;2023-04-24T01:02:43;95234.78;;;12.81;67.55
8253;BME280;61313;48.396;10.008;2023-04-24T01:05:11;95246.03;;;12.83;67.45
8253;BME280;61313;48.396;10.008;2023-04-24T01:07:38;95243.56;;;12.69;68.33
8253;BME280;61313;48.396;10.008;2023-04-24T01:10:04;95231.50;;;12.78;68.43
8253;BME280;61313;48.396;10.008;2023-04-24T01:12:29;95230.16;;;12.72;67.44
8253;BME280;61313;48.396;10.008;2023-04-24T01:14:56;95218.16;;;12.68;68.08
8253;BME280;61313;48.396;10.008;2023-04-24T01:17:22;95233.53;;;12.74;68.03
8253;BME280;61313;48.396;10.008;2023-04-24T01:19:47;95229.94;;;12.75;67.82
8253;BME280;61313;48.396;10.008;2023-04-24T01:22:16;95244.56;;;12.79;67.30
8253;BME280;61313;48.396;10.008;2023-04-24T01:24:42;95230.56;;;12.79;68.02
8253;BME280;61313;48.396;10.008;2023-04-24T01:27:09;95227.94;;;12.79;67.76
8253;BME280;61313;48.396;10.008;2023-04-24T01:29:35;95215.84;;;12.76;67.99
8253;BME280;61313;48.396;10.008;2023-04-24T01:32:02;95216.91;;;12.74;67.88
8253;BME280;61313;48.396;10.008;2023-04-24T01:34:28;95211.00;;;12.70;67.87
8253;BME280;61313;48.396;10.008;2023-04-24T01:36:53;95215.53;;;12.68;68.47
8253;BME280;61313;48.396;10.008;2023-04-24T01:39:19;95216.47;;;12.17;70.04
8253;BME280;61313;48.396;10.008;2023-04-24T01:41:46;95217.56;;;12.52;69.23
8253;BME280;61313;48.396;10.008;2023-04-24T01:44:11;95211.31;;;12.65;68.42
8253;BME280;61313;48.396;10.008;2023-04-24T01:46:37;95218.56;;;12.75;67.96
8253;BME280;61313;48.396;10.008;2023-04-24T01:49:03;95219.22;;;12.78;67.65
8253;BME280;61313;48.396;10.008;2023-04-24T01:51:28;95228.59;;;12.69;67.94
8253;BME280;61313;48.396;10.008;2023-04-24T01:53:54;95222.03;;;12.75;67.57
8253;BME280;61313;48.396;10.008;2023-04-24T01:56:21;95222.16;;;12.74;67.80
8253;BME280;61313;48.396;10.008;2023-04-24T01:58:48;95221.53;;;12.70;67.82
8253;BME280;61313;48.396;10.008;2023-04-24T02:01:18;95221.03;;;12.65;68.05
8253;BME280;61313;48.396;10.008;2023-04-24T02:03:44;95232.88;;;12.70;68.06
8253;BME280;61313;48.396;10.008;2023-04-24T02:06:09;95226.38;;;12.63;68.01
8253;BME280;61313;48.396;10.008;2023-04-24T02:08:35;95228.59;;;12.69;67.96
8253;BME280;61313;48.396;10.008;2023-04-24T02:11:00;95227.94;;;12.66;67.78
8253;BME280;61313;48.396;10.008;2023-04-24T02:13:27;95228.41;;;12.60;67.86
8253;BME280;61313;48.396;10.008;2023-04-24T02:15:52;95220.75;;;12.57;67.93
8253;BME280;61313;48.396;10.008;2023-04-24T02:18:18;95230.31;;;12.58;67.67
8253;BME280;61313;48.396;10.008;2023-04-24T02:20:43;95225.56;;;12.63;67.00
8253;BME280;61313;48.396;10.008;2023-04-24T02:23:09;95226.19;;;12.54;68.27
8253;BME280;61313;48.396;10.008;2023-04-24T02:25:34;95232.50;;;12.51;67.52
8253;BME280;61313;48.396;10.008;2023-04-24T02:28:00;95221.25;;;12.49;67.78
8253;BME280;61313;48.396;10.008;2023-04-24T02:30:25;95231.34;;;12.55;67.27
8253;BME280;61313;48.396;10.008;2023-04-24T02:32:51;95225.69;;;12.48;67.50
8253;BME280;61313;48.396;10.008;2023-04-24T02:35:16;95232.28;;;12.54;67.32
8253;BME280;61313;48.396;10.008;2023-04-24T02:37:42;95223.06;;;12.48;66.64
8253;BME280;61313;48.396;10.008;2023-04-24T02:40:08;95223.78;;;12.50;66.70
8253;BME280;61313;48.396;10.008;2023-04-24T02:42:34;95219.69;;;12.46;67.23
8253;BME280;61313;48.396;10.008;2023-04-24T02:45:01;95222.53;;;12.43;66.92
8253;BME280;61313;48.396;10.008;2023-04-24T02:47:26;95216.84;;;12.37;66.97
8253;BME280;61313;48.396;10.008;2023-04-24T02:49:52;95222.22;;;12.48;66.61
8253;BME280;61313;48.396;10.008;2023-04-24T02:52:17;95221.16;;;12.38;67.20
8253;BME280;61313;48.396;10.008;2023-04-24T02:54:43;95216.22;;;12.46;66.22
8253;BME280;61313;48.396;10.008;2023-04-24T02:57:08;95220.53;;;12.34;67.49
8253;BME280;61313;48.396;10.008;2023-04-24T02:59:34;95219.06;;;12.30;66.74
8253;BME280;61313;48.396;10.008;2023-04-24T03:01:59;95222.16;;;12.24;67.31
8253;BME280;61313;48.396;10.008;2023-04-24T03:04:25;95222.34;;;12.34;66.73
8253;BME280;61313;48.396;10.008;2023-04-24T03:06:51;95224.00;;;12.35;67.22
8253;BME280;61313;48.396;10.008;2023-04-24T03:09:18;95209.59;;;12.27;67.72
8253;BME280;61313;48.396;10.008;2023-04-24T03:11:44;95217.50;;;12.27;67.50
8253;BME280;61313;48.396;10.008;2023-04-24T03:14:09;95217.94;;;12.21;68.07
8253;BME280;61313;48.396;10.008;2023-04-24T03:16:35;95223.06;;;12.23;67.86
8253;BME280;61313;48.396;10.008;2023-04-24T03:19:00;95210.97;;;12.20;68.10
8253;BME280;61313;48.396;10.008;2023-04-24T03:21:26;95222.03;;;12.25;67.94
8253;BME280;61313;48.396;10.008;2023-04-24T03:23:51;95215.19;;;12.23;68.30
8253;BME280;61313;48.396;10.008;2023-04-24T03:26:17;95211.91;;;12.32;68.19
8253;BME280;61313;48.396;10.008;2023-04-24T03:28:42;95210.44;;;12.28;68.27
8253;BME280;61313;48.396;10.008;2023-04-24T03:31:08;95206.69;;;12.19;68.30
8253;BME280;61313;48.396;10.008;2023-04-24T03:33:33;95204.16;;;12.18;69.07
8253;BME280;61313;48.396;10.008;2023-04-24T03:35:59;95214.66;;;12.18;68.88
8253;BME280;61313;48.396;10.008;2023-04-24T03:38:24;95218.88;;;12.20;68.73
8253;BME280;61313;48.396;10.008;2023-04-24T03:40:50;95220.97;;;12.15;69.01
8253;BME280;61313;48.396;10.008;2023-04-24T03:43:15;95211.72;;;12.22;68.51
8253;BME280;61313;48.396;10.008;2023-04-24T03:45:40;95222.03;;;12.25;68.73
8253;BME280;61313;48.396;10.008;2023-04-24T03:48:06;95215.91;;;12.25;69.00
8253;BME280;61313;48.396;10.008;2023-04-24T03:50:32;95213.84;;;12.17;69.85
8253;BME280;61313;48.396;10.008;2023-04-24T03:52:58;95223.28;;;12.20;69.15
8253;BME280;61313;48.396;10.008;2023-04-24T03:55:23;95224.34;;;12.17;69.44
8253;BME280;61313;48.396;10.008;2023-04-24T03:57:49;95220.16;;;12.15;69.69
8253;BME280;61313;48.396;10.008;2023-04-24T04:00:14;95219.41;;;12.13;69.42
8253;BME280;61313;48.396;10.008;2023-04-24T04:02:40;95222.75;;;12.27;69.13
8253;BME280;61313;48.396;10.008;2023-04-24T04:05:06;95227.06;;;12.16;69.93
8253;BME280;61313;48.396;10.008;2023-04-24T04:07:33;95221.19;;;12.12;69.81
8253;BME280;61313;48.396;10.008;2023-04-24T04:09:58;95219.84;;;12.19;69.42
8253;BME280;61313;48.396;10.008;2023-04-24T04:12:24;95225.59;;;12.12;69.46
8253;BME280;61313;48.396;10.008;2023-04-24T04:14:49;95224.34;;;12.17;69.94
8253;BME280;61313;48.396;10.008;2023-04-24T04:17:15;95222.66;;;12.16;69.08
8253;BME280;61313;48.396;10.008;2023-04-24T04:19:40;95221.06;;;12.14;69.25
8253;BME280;61313;48.396;10.008;2023-04-24T04:22:06;95225.50;;;12.13;69.60
8253;BME280;61313;48.396;10.008;2023-04-24T04:24:33;95230.66;;;12.15;69.25
8253;BME280;61313;48.396;10.008;2023-04-24T04:26:59;95223.59;;;12.28;69.50
8253;BME280;61313;48.396;10.008;2023-04-24T04:29:25;95230.97;;;12.23;69.22
8253;BME280;61313;48.396;10.008;2023-04-24T04:31:51;95234.03;;;12.17;69.42
8253;BME280;61313;48.396;10.008;2023-04-24T04:34:16;95246.31;;;12.16;68.99
8253;BME280;61313;48.396;10.008;2023-04-24T04:36:42;95243.28;;;12.10;69.27
8253;BME280;61313;48.396;10.008;2023-04-24T04:39:08;95243.91;;;12.13;68.97
8253;BME280;61313;48.396;10.008;2023-04-24T04:41:34;95258.53;;;12.17;68.60
8253;BME280;61313;48.396;10.008;2023-04-24T04:44:02;95245.50;;;12.16;68.51
8253;BME280;61313;48.396;10.008;2023-04-24T04:46:30;95249.81;;;12.17;69.71
8253;BME280;61313;48.396;10.008;2023-04-24T04:48:58;95250.66;;;12.17;68.87
8253;BME280;61313;48.396;10.008;2023-04-24T04:51:24;95238.97;;;12.08;69.25
8253;BME280;61313;48.396;10.008;2023-04-24T04:53:50;95250.53;;;12.06;69.00
8253;BME280;61313;48.396;10.008;2023-04-24T04:56:15;95260.84;;;12.09;69.07
8253;BME280;61313;48.396;10.008;2023-04-24T04:58:40;95262.31;;;12.13;68.52
8253;BME280;61313;48.396;10.008;2023-04-24T05:01:06;95251.81;;;12.13;68.23
8253;BME280;61313;48.396;10.008;2023-04-24T05:03:32;95249.38;;;12.10;67.86
8253;BME280;61313;48.396;10.008;2023-04-24T05:05:57;95249.91;;;12.15;67.40
8253;BME280;61313;48.396;10.008;2023-04-24T05:08:23;95262.22;;;12.15;68.30
8253;BME280;61313;48.396;10.008;2023-04-24T05:10:49;95269.16;;;12.16;67.76
8253;BME280;61313;48.396;10.008;2023-04-24T05:13:14;95268.75;;;12.22;67.33
8253;BME280;61313;48.396;10.008;2023-04-24T05:15:40;95276.13;;;12.17;67.66
8253;BME280;61313;48.396;10.008;2023-04-24T05:18:08;95276.63;;;12.22;67.61
8253;BME280;61313;48.396;10.008;2023-04-24T05:20:34;95287.16;;;12.22;66.58
8253;BME280;61313;48.396;10.008;2023-04-24T05:23:01;95275.16;;;12.18;67.13
8253;BME280;61313;48.396;10.008;2023-04-24T05:25:27;95274.75;;;12.24;67.03
8253;BME280;61313;48.396;10.008;2023-04-24T05:27:52;95276.22;;;12.15;66.53
8253;BME280;61313;48.396;10.008;2023-04-24T05:30:19;95271.47;;;12.20;66.46
8253;BME280;61313;48.396;10.008;2023-04-24T05:32:45;95272.31;;;12.21;66.75
8253;BME280;61313;48.396;10.008;2023-04-24T05:35:11;95276.44;;;12.12;65.87
8253;BME280;61313;48.396;10.008;2023-04-24T05:37:37;95278.31;;;12.23;66.35
8253;BME280;61313;48.396;10.008;2023-04-24T05:40:03;95278.63;;;12.18;65.70
8253;BME280;61313;48.396;10.008;2023-04-24T05:42:30;95281.16;;;12.20;65.99
8253;BME280;61313;48.396;10.008;2023-04-24T05:44:56;95289.56;;;12.25;65.91
8253;BME280;61313;48.396;10.008;2023-04-24T05:47:21;95289.47;;;12.26;65.18
8253;BME280;61313;48.396;10.008;2023-04-24T05:49:47;95283.91;;;12.31;65.02
8253;BME280;61313;48.396;10.008;2023-04-24T05:52:13;95290.63;;;12.22;65.45
8253;BME280;61313;48.396;10.008;2023-04-24T05:54:38;95298.81;;;12.18;65.74
8253;BME280;61313;48.396;10.008;2023-04-24T05:57:04;95299.78;;;12.29;64.92
8253;BME280;61313;48.396;10.008;2023-04-24T05:59:33;95307.16;;;12.24;65.00
8253;BME280;61313;48.396;10.008;2023-04-24T06:01:58;95315.56;;;12.29;64.62
8253;BME280;61313;48.396;10.008;2023-04-24T06:04:25;95314.00;;;12.27;64.19
8253;BME280;61313;48.396;10.008;2023-04-24T06:06:50;95315.88;;;12.25;64.65
8253;BME280;61313;48.396;10.008;2023-04-24T06:09:21;95320.91;;;12.28;64.12
8253;BME280;61313;48.396;10.008;2023-04-24T06:11:46;95326.84;;;12.32;64.31
8253;BME280;61313;48.396;10.008;2023-04-24T06:14:12;95333.13;;;12.16;65.05
8253;BME280;61313;48.396;10.008;2023-04-24T06:16:38;95339.41;;;12.14;65.76
8253;BME280;61313;48.396;10.008;2023-04-24T06:19:04;95360.16;;;12.18;66.88
8253;BME280;61313;48.396;10.008;2023-04-24T06:21:29;95380.81;;;11.97;68.21
8253;BME280;61313;48.396;10.008;2023-04-24T06:23:55;95364.75;;;11.75;65.59
8253;BME280;61313;48.396;10.008;2023-04-24T06:26:21;95350.66;;;11.76;65.98
8253;BME280;61313;48.396;10.008;2023-04-24T06:28:47;95347.72;;;11.80;62.48
8253;BME280;61313;48.396;10.008;2023-04-24T06:31:13;95361.09;;;11.77;62.59
8253;BME280;61313;48.396;10.008;2023-04-24T06:33:38;95356.44;;;11.81;63.12
8253;BME280;61313;48.396;10.008;2023-04-24T06:36:04;95349.19;;;11.72;62.40
8253;BME280;61313;48.396;10.008;2023-04-24T06:38:29;95355.22;;;11.86;61.91
8253;BME280;61313;48.396;10.008;2023-04-24T06:40:55;95362.28;;;11.86;61.78
8253;BME280;61313;48.396;10.008;2023-04-24T06:43:20;95362.47;;;11.83;60.79
8253;BME280;61313;48.396;10.008;2023-04-24T06:45:45;95375.81;;;11.80;60.93
8253;BME280;61313;48.396;10.008;2023-04-24T06:48:12;95363.06;;;11.74;61.87
8253;BME280;61313;48.396;10.008;2023-04-24T06:50:37;95361.28;;;11.74;61.41
8253;BME280;61313;48.396;10.008;2023-04-24T06:53:03;95364.75;;;11.75;62.50
8253;BME280;61313;48.396;10.008;2023-04-24T06:55:28;95360.13;;;11.78;62.15
8253;BME280;61313;48.396;10.008;2023-04-24T06:57:54;95363.25;;;11.71;63.21
8253;BME280;61313;48.396;10.008;2023-04-24T07:00:20;95378.66;;;11.77;62.79
8253;BME280;61313;48.396;10.008;2023-04-24T07:02:45;95372.69;;;11.88;61.15
8253;BME280;61313;48.396;10.008;2023-04-24T07:05:11;95376.91;;;11.90;62.13
8253;BME280;61313;48.396;10.008;2023-04-24T07:07:38;95377.66;;;11.92;61.73
8253;BME280;61313;48.396;10.008;2023-04-24T07:10:05;95382.31;;;12.01;62.35
8253;BME280;61313;48.396;10.008;2023-04-24T07:12:31;95374.09;;;11.93;62.53
8253;BME280;61313;48.396;10.008;2023-04-24T07:14:57;95373.69;;;11.99;62.67
8253;BME280;61313;48.396;10.008;2023-04-24T07:17:23;95370.63;;;11.78;63.71
8253;BME280;61313;48.396;10.008;2023-04-24T07:19:48;95381.72;;;12.11;63.23
8253;BME280;61313;48.396;10.008;2023-04-24T07:22:13;95389.91;;;12.19;61.98
8253;BME280;61313;48.396;10.008;2023-04-24T07:24:43;95379.13;;;12.36;61.21
8253;BME280;61313;48.396;10.008;2023-04-24T07:27:08;95393.56;;;12.43;59.61
8253;BME280;61313;48.396;10.008;2023-04-24T07:29:34;95389.78;;;12.60;59.88
8253;BME280;61313;48.396;10.008;2023-04-24T07:32:00;95386.22;;;13.00;59.52
8253;BME280;61313;48.396;10.008;2023-04-24T07:34:26;95385.00;;;13.42;58.01
8253;BME280;61313;48.396;10.008;2023-04-24T07:36:51;95390.41;;;13.28;57.31
8253;BME280;61313;48.396;10.008;2023-04-24T07:39:17;95391.03;;;13.31;57.87
8253;BME280;61313;48.396;10.008;2023-04-24T07:41:43;95388.16;;;13.34;56.47
8253;BME280;61313;48.396;10.008;2023-04-24T07:44:08;95396.63;;;14.12;56.93
8253;BME280;61313;48.396;10.008;2023-04-24T07:46:34;95387.50;;;14.75;54.44
8253;BME280;61313;48.396;10.008;2023-04-24T07:48:59;95388.09;;;15.35;52.96
8253;BME280;61313;48.396;10.008;2023-04-24T07:51:26;95387.38;;;15.56;51.41
8253;BME280;61313;48.396;10.008;2023-04-24T07:53:55;95393.88;;;15.52;52.02
8253;BME280;61313;48.396;10.008;2023-04-24T07:56:21;95396.19;;;16.11;51.80
8253;BME280;61313;48.396;10.008;2023-04-24T07:58:46;95395.84;;;16.04;50.17
8253;BME280;61313;48.396;10.008;2023-04-24T08:01:12;95395.88;;;15.93;48.71
8253;BME280;61313;48.396;10.008;2023-04-24T08:03:37;95403.97;;;15.46;49.80
8253;BME280;61313;48.396;10.008;2023-04-24T08:06:03;95401.94;;;15.28;50.76
8253;BME280;61313;48.396;10.008;2023-04-24T08:08:28;95400.84;;;14.96;51.54
8253;BME280;61313;48.396;10.008;2023-04-24T08:10:54;95404.94;;;15.12;51.58
8253;BME280;61313;48.396;10.008;2023-04-24T08:13:20;95401.72;;;15.19;51.65
8253;BME280;61313;48.396;10.008;2023-04-24T08:15:46;95401.06;;;15.61;51.36
8253;BME280;61313;48.396;10.008;2023-04-24T08:18:11;95403.63;;;15.29;51.49
8253;BME280;61313;48.396;10.008;2023-04-24T08:20:41;95394.03;;;15.05;48.79
8253;BME280;61313;48.396;10.008;2023-04-24T08:23:06;95401.34;;;15.01;47.12
8253;BME280;61313;48.396;10.008;2023-04-24T08:25:32;95395.44;;;15.20;46.76
8253;BME280;61313;48.396;10.008;2023-04-24T08:27:57;95397.38;;;14.96;45.76
8253;BME280;61313;48.396;10.008;2023-04-24T08:30:23;95386.44;;;14.89;46.02
8253;BME280;61313;48.396;10.008;2023-04-24T08:32:48;95391.25;;;14.95;46.34
8253;BME280;61313;48.396;10.008;2023-04-24T08:35:14;95398.56;;;15.48;45.06
8253;BME280;61313;48.396;10.008;2023-04-24T08:37:39;95385.84;;;16.08;42.97
8253;BME280;61313;48.396;10.008;2023-04-24T08:40:16;95384.81;;;16.20;42.68
8253;BME280;61313;48.396;10.008;2023-04-24T08:42:44;95395.13;;;16.35;42.80
8253;BME280;61313;48.396;10.008;2023-04-24T08:45:11;95383.38;;;16.69;41.85
8253;BME280;61313;48.396;10.008;2023-04-24T08:47:38;95387.66;;;16.82;41.39
8253;BME280;61313;48.396;10.008;2023-04-24T08:50:04;95429.41;;;16.36;43.06
8253;BME280;61313;48.396;10.008;2023-04-24T08:52:33;95447.34;;;15.10;45.71
8253;BME280;61313;48.396;10.008;2023-04-24T08:55:00;95456.41;;;14.48;49.33
8253;BME280;61313;48.396;10.008;2023-04-24T08:57:26;95446.81;;;13.99;51.49
8253;BME280;61313;48.396;10.008;2023-04-24T08:59:53;95455.06;;;13.58;53.20
8253;BME280;61313;48.396;10.008;2023-04-24T09:02:18;95446.88;;;13.49;53.54
8253;BME280;61313;48.396;10.008;2023-04-24T09:04:45;95451.44;;;13.71;54.21
8253;BME280;61313;48.396;10.008;2023-04-24T09:07:12;95449.44;;;14.47;50.75
8253;BME280;61313;48.396;10.008;2023-04-24T09:09:40;95454.84;;;14.70;49.34
8253;BME280;61313;48.396;10.008;2023-04-24T09:12:07;95450.78;;;14.53;48.67
8253;BME280;61313;48.396;10.008;2023-04-24T09:14:34;95456.25;;;14.63;48.06
8253;BME280;61313;48.396;10.008;2023-04-24T09:17:01;95450.84;;;14.64;49.58
8253;BME280;61313;48.396;10.008;2023-04-24T09:19:27;95446.88;;;14.34;48.60
8253;BME280;61313;48.396;10.008;2023-04-24T09:21:53;95441.97;;;14.17;49.94
8253;BME280;61313;48.396;10.008;2023-04-24T09:24:20;95435.88;;;14.16;49.70
8253;BME280;61313;48.396;10.008;2023-04-24T09:26:48;95445.16;;;14.22;49.52
8253;BME280;61313;48.396;10.008;2023-04-24T09:29:17;95438.84;;;14.12;48.42
8253;BME280;61313;48.396;10.008;2023-04-24T09:31:44;95442.84;;;14.17;48.57
8253;BME280;61313;48.396;10.008;2023-04-24T09:34:10;95451.84;;;14.50;48.25
8253;BME280;61313;48.396;10.008;2023-04-24T09:36:43;95462.78;;;14.46;46.18
8253;BME280;61313;48.396;10.008;2023-04-24T09:39:13;95442.94;;;14.40;46.63
8253;BME280;61313;48.396;10.008;2023-04-24T09:41:52;95452.41;;;14.67;44.41
8253;BME280;61313;48.396;10.008;2023-04-24T09:44:22;95443.72;;;15.00;44.04
8253;BME280;61313;48.396;10.008;2023-04-24T09:46:51;95450.72;;;15.69;43.02
8253;BME280;61313;48.396;10.008;2023-04-24T09:49:25;95450.97;;;15.88;41.74
8253;BME280;61313;48.396;10.008;2023-04-24T09:51:51;95448.19;;;15.67;41.55
8253;BME280;61313;48.396;10.008;2023-04-24T09:54:21;95446.41;;;15.79;41.07
8253;BME280;61313;48.396;10.008;2023-04-24T09:56:49;95441.41;;;16.08;39.86
8253;BME280;61313;48.396;10.008;2023-04-24T09:59:16;95430.31;;;16.25;39.18
8253;BME280;61313;48.396;10.008;2023-04-24T10:01:42;95453.81;;;15.96;38.81
8253;BME280;61313;48.396;10.008;2023-04-24T10:06:46;95445.31;;;15.81;39.99
8253;BME280;61313;48.396;10.008;2023-04-24T10:09:12;95456.75;;;15.59;40.13
8253;BME280;61313;48.396;10.008;2023-04-24T10:11:42;95445.44;;;15.12;40.75
8253;BME280;61313;48.396;10.008;2023-04-24T10:14:11;95444.34;;;15.15;41.19
8253;BME280;61313;48.396;10.008;2023-04-24T10:16:38;95447.72;;;15.17;40.61
8253;BME280;61313;48.396;10.008;2023-04-24T10:19:05;95439.19;;;15.24;40.39
8253;BME280;61313;48.396;10.008;2023-04-24T10:21:31;95443.00;;;15.65;38.97
8253;BME280;61313;48.396;10.008;2023-04-24T10:23:57;95443.38;;;15.95;38.22
8253;BME280;61313;48.396;10.008;2023-04-24T10:26:26;95458.00;;;16.10;38.22
8253;BME280;61313;48.396;10.008;2023-04-24T10:28:52;95461.75;;;15.96;38.30
8253;BME280;61313;48.396;10.008;2023-04-24T10:31:18;95458.94;;;16.20;37.16
8253;BME280;61313;48.396;10.008;2023-04-24T10:33:45;95461.56;;;16.32;36.92
8253;BME280;61313;48.396;10.008;2023-04-24T10:36:12;95453.31;;;16.46;36.10
8253;BME280;61313;48.396;10.008;2023-04-24T10:38:40;95458.16;;;16.41;36.53
8253;BME280;61313;48.396;10.008;2023-04-24T10:41:10;95460.72;;;16.63;35.54
8253;BME280;61313;48.396;10.008;2023-04-24T10:43:41;95469.28;;;16.88;35.13
8253;BME280;61313;48.396;10.008;2023-04-24T10:46:08;95464.84;;;16.56;34.14
8253;BME280;61313;48.396;10.008;2023-04-24T10:48:35;95461.81;;;16.28;34.67
8253;BME280;61313;48.396;10.008;2023-04-24T10:51:01;95501.34;;;15.98;36.48
8253;BME280;61313;48.396;10.008;2023-04-24T10:53:30;95503.13;;;15.41;38.40
8253;BME280;61313;48.396;10.008;2023-04-24T10:56:03;95509.78;;;15.11;39.29
8253;BME280;61313;48.396;10.008;2023-04-24T10:58:43;95520.91;;;14.92;38.88
8253;BME280;61313;48.396;10.008;2023-04-24T11:01:27;95514.22;;;14.99;41.72
8253;BME280;61313;48.396;10.008;2023-04-24T11:03:58;95511.56;;;14.99;40.93
8253;BME280;61313;48.396;10.008;2023-04-24T11:06:35;95516.13;;;14.86;41.12
8253;BME280;61313;48.396;10.008;2023-04-24T11:09:08;95520.66;;;14.84;40.78
8253;BME280;61313;48.396;10.008;2023-04-24T11:11:36;95513.72;;;15.52;40.00
8253;BME280;61313;48.396;10.008;2023-04-24T11:14:04;95508.34;;;15.87;38.91
8253;BME280;61313;48.396;10.008;2023-04-24T11:16:45;95502.16;;;16.21;38.66
8253;BME280;61313;48.396;10.008;2023-04-24T11:22:14;95505.19;;;16.05;38.70
8253;BME280;61313;48.396;10.008;2023-04-24T11:24:49;95515.97;;;15.68;38.40
8253;BME280;61313;48.396;10.008;2023-04-24T11:27:17;95515.38;;;15.53;38.64
8253;BME280;61313;48.396;10.008;2023-04-24T11:29:46;95510.69;;;15.34;36.86
8253;BME280;61313;48.396;10.008;2023-04-24T11:32:25;95519.22;;;15.27;37.26
8253;BME280;61313;48.396;10.008;2023-04-24T11:35:01;95522.59;;;15.29;37.41
8253;BME280;61313;48.396;10.008;2023-04-24T11:37:29;95513.69;;;15.41;37.78
8253;BME280;61313;48.396;10.008;2023-04-24T11:39:56;95529.03;;;15.13;37.98
8253;BME280;61313;48.396;10.008;2023-04-24T11:42:22;95530.13;;;15.22;38.48
8253;BME280;61313;48.396;10.008;2023-04-24T11:44:49;95551.97;;;15.13;38.98
8253;BME280;61313;48.396;10.008;2023-04-24T11:47:15;95547.28;;;14.81;38.93
8253;BME280;61313;48.396;10.008;2023-04-24T11:49:40;95538.03;;;14.75;39.62
8253;BME280;61313;48.396;10.008;2023-04-24T11:52:06;95545.34;;;14.72;40.18
8253;BME280;61313;48.396;10.008;2023-04-24T11:54:32;95546.03;;;14.63;40.34
8253;BME280;61313;48.396;10.008;2023-04-24T11:56:57;95552.25;;;14.61;40.41
8253;BME280;61313;48.396;10.008;2023-04-24T11:59:23;95540.34;;;14.80;39.55
8253;BME280;61313;48.396;10.008;2023-04-24T12:01:49;95528.78;;;15.05;38.39
8253;BME280;61313;48.396;10.008;2023-04-24T12:04:16;95527.22;;;15.14;37.05
8253;BME280;61313;48.396;10.008;2023-04-24T12:07:04;95521.72;;;15.17;35.95
8253;BME280;61313;48.396;10.008;2023-04-24T12:09:55;95533.63;;;15.34;35.42
8253;BME280;61313;48.396;10.008;2023-04-24T12:12:24;95535.72;;;15.06;35.92
8253;BME280;61313;48.396;10.008;2023-04-24T12:14:55;95538.28;;;15.08;36.35
8253;BME280;61313;48.396;10.008;2023-04-24T12:17:32;95546.47;;;15.27;36.49
8253;BME280;61313;48.396;10.008;2023-04-24T12:19:59;95540.38;;;15.38;36.99
8253;BME280;61313;48.396;10.008;2023-04-24T12:22:26;95536.53;;;15.31;36.45
8253;BME280;61313;48.396;10.008;2023-04-24T12:25:01;95549.88;;;14.94;35.83
8253;BME280;61313;48.396;10.008;2023-04-24T12:27:34;95563.09;;;14.70;36.29
8253;BME280;61313;48.396;10.008;2023-04-24T12:30:01;95556.09;;;14.45;36.86
8253;BME280;61313;48.396;10.008;2023-04-24T12:32:27;95562.22;;;14.58;37.12
8253;BME280;61313;48.396;10.008;2023-04-24T12:34:53;95570.56;;;14.76;36.18
8253;BME280;61313;48.396;10.008;2023-04-24T12:37:19;95566.69;;;14.69;36.80
8253;BME280;61313;48.396;10.008;2023-04-24T12:42:29;95563.44;;;14.65;36.68
8253;BME280;61313;48.396;10.008;2023-04-24T12:45:00;95556.78;;;14.59;37.22
8253;BME280;61313;48.396;10.008;2023-04-24T12:47:27;95560.41;;;14.58;37.19
8253;BME280;61313;48.396;10.008;2023-04-24T12:49:53;95559.34;;;14.61;37.19
8253;BME280;61313;48.396;10.008;2023-04-24T12:52:24;95560.00;;;14.76;37.51
8253;BME280;61313;48.396;10.008;2023-04-24T12:54:50;95551.41;;;14.85;37.42
8253;BME280;61313;48.396;10.008;2023-04-24T12:57:17;95555.09;;;14.82;37.21
8253;BME280;61313;48.396;10.008;2023-04-24T12:59:42;95562.97;;;14.95;37.00
8253;BME280;61313;48.396;10.008;2023-04-24T13:02:08;95570.78;;;14.73;37.83
8253;BME280;61313;48.396;10.008;2023-04-24T13:04:35;95571.75;;;14.72;37.67
8253;BME280;61313;48.396;10.008;2023-04-24T13:07:00;95570.00;;;14.59;37.90